AFR7339 LFML-LFPG
Flight info
| Callsign | AFR7339 |
|---|---|
| Flight time | N/A |
| Altitude | 22000 |
| Route | MTL A3 MURRO/N0385F180 A3 LESPI/N0444F380 A3 MOU |
| Aircraft | A320/M-SDE3FGHIRWY/LB1 |
Departure
| Time | 2026-04-27 13:37 |
|---|---|
| Airport | Marseille Provence Airport (LFML) |
Arrival
| Time | N/A |
|---|---|
| Airport | Charles de Gaulle International Airport (LFPG) |
| Time | Latitude | Longitude | Altitude | Speed | Heading |
|---|---|---|---|---|---|
| 2026-04-27 13:13 | 43.44013 | 5.21886 | 36 ft | 0 kts | 43° |
| 2026-04-27 13:32 | 43.44036 | 5.21916 | 36 ft | 5 kts | 43° |
| 2026-04-27 13:32 | 43.44043 | 5.21953 | 37 ft | 3 kts | 99° |
| 2026-04-27 13:32 | 43.44032 | 5.21973 | 37 ft | 5 kts | 133° |
| 2026-04-27 13:32 | 43.43982 | 5.21964 | 38 ft | 12 kts | 219° |
| 2026-04-27 13:33 | 43.43912 | 5.21875 | 38 ft | 15 kts | 221° |
| 2026-04-27 13:33 | 43.43829 | 5.21916 | 40 ft | 13 kts | 133° |
| 2026-04-27 13:33 | 43.43773 | 5.21994 | 42 ft | 10 kts | 138° |
| 2026-04-27 13:33 | 43.43726 | 5.22037 | 44 ft | 7 kts | 148° |
| 2026-04-27 13:34 | 43.43693 | 5.22064 | 45 ft | 7 kts | 149° |
| 2026-04-27 13:34 | 43.43610 | 5.22131 | 47 ft | 18 kts | 150° |
| 2026-04-27 13:34 | 43.43501 | 5.22217 | 50 ft | 18 kts | 149° |
| 2026-04-27 13:34 | 43.43393 | 5.22287 | 53 ft | 17 kts | 166° |
| 2026-04-27 13:35 | 43.43300 | 5.22367 | 54 ft | 15 kts | 133° |
| 2026-04-27 13:35 | 43.43239 | 5.22455 | 54 ft | 11 kts | 134° |
| 2026-04-27 13:35 | 43.43189 | 5.22497 | 59 ft | 7 kts | 171° |
| 2026-04-27 13:35 | 43.43150 | 5.22496 | 62 ft | 6 kts | 185° |
| 2026-04-27 13:36 | 43.43085 | 5.22468 | 59 ft | 13 kts | 210° |
| 2026-04-27 13:36 | 43.43070 | 5.22360 | 63 ft | 13 kts | 306° |
| 2026-04-27 13:36 | 43.43144 | 5.22251 | 58 ft | 19 kts | 314° |
| 2026-04-27 13:36 | 43.43244 | 5.22107 | 56 ft | 52 kts | 314° |
| 2026-04-27 13:37 | 43.43880 | 5.21204 | 30 ft | 140 kts | 314° |
| 2026-04-27 13:37 | 43.44638 | 5.20110 | 323 ft | 163 kts | 310° |
| 2026-04-27 13:37 | 43.45437 | 5.18983 | 1010 ft | 164 kts | 311° |
| 2026-04-27 13:37 | 43.46251 | 5.17825 | 1579 ft | 177 kts | 313° |
| 2026-04-27 13:38 | 43.47160 | 5.16526 | 1939 ft | 200 kts | 314° |
| 2026-04-27 13:38 | 43.47823 | 5.15580 | 2173 ft | 214 kts | 315° |
| 2026-04-27 13:38 | 43.48915 | 5.14028 | 2592 ft | 237 kts | 315° |
| 2026-04-27 13:38 | 43.50119 | 5.12316 | 3216 ft | 256 kts | 316° |
| 2026-04-27 13:39 | 43.51369 | 5.10535 | 4224 ft | 260 kts | 315° |
| 2026-04-27 13:39 | 43.52636 | 5.08724 | 5163 ft | 265 kts | 315° |
| 2026-04-27 13:39 | 43.53922 | 5.06881 | 6083 ft | 269 kts | 315° |
| 2026-04-27 13:39 | 43.55229 | 5.05006 | 6985 ft | 273 kts | 314° |
| 2026-04-27 13:40 | 43.56553 | 5.03109 | 7861 ft | 277 kts | 314° |
| 2026-04-27 13:40 | 43.57900 | 5.01183 | 8753 ft | 280 kts | 314° |
| 2026-04-27 13:40 | 43.59270 | 4.99242 | 9628 ft | 285 kts | 314° |
| 2026-04-27 13:40 | 43.60668 | 4.97270 | 10420 ft | 290 kts | 314° |
| 2026-04-27 13:41 | 43.62106 | 4.95237 | 10926 ft | 306 kts | 314° |
| 2026-04-27 13:41 | 43.63653 | 4.93042 | 11173 ft | 330 kts | 314° |
| 2026-04-27 13:41 | 43.65313 | 4.90688 | 11443 ft | 351 kts | 314° |
| 2026-04-27 13:41 | 43.67125 | 4.88368 | 12040 ft | 359 kts | 323° |
| 2026-04-27 13:42 | 43.69302 | 4.86636 | 12716 ft | 365 kts | 337° |
| 2026-04-27 13:42 | 43.71728 | 4.85535 | 13030 ft | 368 kts | 344° |
| 2026-04-27 13:42 | 43.74165 | 4.84578 | 13180 ft | 370 kts | 344° |
| 2026-04-27 13:42 | 43.76667 | 4.83613 | 13866 ft | 375 kts | 344° |
| 2026-04-27 13:43 | 43.79190 | 4.82644 | 14544 ft | 378 kts | 344° |
| 2026-04-27 13:43 | 43.81730 | 4.81664 | 15211 ft | 381 kts | 344° |
| 2026-04-27 13:43 | 43.84290 | 4.80666 | 15869 ft | 383 kts | 344° |
| 2026-04-27 13:43 | 43.86863 | 4.79652 | 16517 ft | 386 kts | 343° |
| 2026-04-27 13:44 | 43.89463 | 4.78624 | 17163 ft | 390 kts | 343° |
| 2026-04-27 13:44 | 43.92078 | 4.77588 | 17807 ft | 393 kts | 343° |
| 2026-04-27 13:44 | 43.94719 | 4.76542 | 18446 ft | 396 kts | 343° |
| 2026-04-27 13:44 | 43.97378 | 4.75497 | 19003 ft | 399 kts | 344° |
| 2026-04-27 13:45 | 44.00132 | 4.74839 | 19564 ft | 404 kts | 354° |
| 2026-04-27 13:45 | 44.02951 | 4.74833 | 20130 ft | 407 kts | 2° |
| 2026-04-27 13:45 | 44.05790 | 4.75020 | 20695 ft | 409 kts | 1° |
| 2026-04-27 13:45 | 44.08645 | 4.75197 | 21239 ft | 412 kts | 2° |
| 2026-04-27 13:46 | 44.11522 | 4.75370 | 21769 ft | 414 kts | 1° |
| 2026-04-27 13:46 | 44.14409 | 4.75539 | 22289 ft | 417 kts | 1° |
| 2026-04-27 13:46 | 44.17322 | 4.75708 | 22774 ft | 420 kts | 1° |
| 2026-04-27 13:46 | 44.20256 | 4.75880 | 23258 ft | 423 kts | 1° |
| 2026-04-27 13:47 | 44.23209 | 4.76053 | 23724 ft | 426 kts | 2° |
| 2026-04-27 13:47 | 44.26173 | 4.76225 | 24122 ft | 428 kts | 2° |
| 2026-04-27 13:47 | 44.29119 | 4.76399 | 24510 ft | 430 kts | 1° |
| 2026-04-27 13:47 | 44.32120 | 4.76581 | 24895 ft | 432 kts | 2° |
| 2026-04-27 13:48 | 44.35125 | 4.76765 | 25264 ft | 434 kts | 1° |
| 2026-04-27 13:48 | 44.38150 | 4.76948 | 25639 ft | 436 kts | 1° |
| 2026-04-27 13:48 | 44.41184 | 4.77131 | 26011 ft | 437 kts | 1° |
| 2026-04-27 13:48 | 44.44233 | 4.77314 | 26373 ft | 439 kts | 1° |
| 2026-04-27 13:49 | 44.47289 | 4.77493 | 26726 ft | 441 kts | 1° |
| 2026-04-27 13:49 | 44.50361 | 4.77671 | 27074 ft | 443 kts | 1° |
| 2026-04-27 13:49 | 44.53449 | 4.77721 | 27403 ft | 444 kts | 355° |
| 2026-04-27 13:49 | 44.56517 | 4.77165 | 27712 ft | 445 kts | 347° |
| 2026-04-27 13:50 | 44.59488 | 4.75956 | 28021 ft | 445 kts | 339° |
| 2026-04-27 13:50 | 44.62398 | 4.74448 | 28335 ft | 447 kts | 339° |
| 2026-04-27 13:50 | 44.65313 | 4.72943 | 28624 ft | 448 kts | 339° |
| 2026-04-27 13:50 | 44.68259 | 4.71426 | 28914 ft | 450 kts | 339° |
| 2026-04-27 13:51 | 44.71205 | 4.69909 | 29181 ft | 452 kts | 339° |
| 2026-04-27 13:51 | 44.74156 | 4.68388 | 29468 ft | 452 kts | 339° |
| 2026-04-27 13:51 | 44.77106 | 4.66870 | 29846 ft | 451 kts | 339° |
| 2026-04-27 13:51 | 44.80045 | 4.65359 | 30215 ft | 449 kts | 339° |
| 2026-04-27 13:52 | 44.82981 | 4.63847 | 30538 ft | 448 kts | 339° |
| 2026-04-27 13:52 | 44.85911 | 4.62332 | 30858 ft | 447 kts | 339° |
| 2026-04-27 13:52 | 44.88812 | 4.60829 | 31165 ft | 446 kts | 339° |
| 2026-04-27 13:52 | 44.91730 | 4.59312 | 31491 ft | 445 kts | 338° |
| 2026-04-27 13:53 | 44.97493 | 4.56309 | 32082 ft | 444 kts | 338° |
| 2026-04-27 13:53 | 45.00394 | 4.54798 | 32396 ft | 443 kts | 338° |
| 2026-04-27 13:53 | 45.03287 | 4.53293 | 32714 ft | 442 kts | 338° |
| 2026-04-27 13:54 | 45.06169 | 4.51793 | 33054 ft | 441 kts | 338° |
| 2026-04-27 13:54 | 45.09042 | 4.50291 | 33405 ft | 439 kts | 338° |
| 2026-04-27 13:54 | 45.11905 | 4.48793 | 33740 ft | 438 kts | 338° |
| 2026-04-27 13:54 | 45.14765 | 4.47298 | 34083 ft | 437 kts | 338° |
| 2026-04-27 13:55 | 45.17610 | 4.45808 | 34387 ft | 436 kts | 338° |
| 2026-04-27 13:55 | 45.20449 | 4.44317 | 34678 ft | 435 kts | 338° |
| 2026-04-27 13:55 | 45.23282 | 4.42831 | 34952 ft | 434 kts | 338° |
| 2026-04-27 13:55 | 45.26115 | 4.41344 | 35222 ft | 433 kts | 337° |
| 2026-04-27 13:56 | 45.28939 | 4.39858 | 35480 ft | 433 kts | 337° |
| 2026-04-27 13:56 | 45.31758 | 4.38369 | 35733 ft | 432 kts | 337° |
| 2026-04-27 13:56 | 45.34581 | 4.36876 | 35955 ft | 432 kts | 337° |
| 2026-04-27 13:56 | 45.37397 | 4.35387 | 36178 ft | 432 kts | 336° |
| 2026-04-27 13:57 | 45.40211 | 4.33897 | 36400 ft | 431 kts | 336° |
| 2026-04-27 13:57 | 45.43020 | 4.32410 | 36621 ft | 431 kts | 336° |
| 2026-04-27 13:57 | 45.45833 | 4.30920 | 36836 ft | 431 kts | 336° |
| 2026-04-27 13:57 | 45.48602 | 4.29454 | 37044 ft | 430 kts | 336° |
| 2026-04-27 13:58 | 45.51405 | 4.27971 | 37265 ft | 430 kts | 336° |
| 2026-04-27 13:58 | 45.54215 | 4.26485 | 37429 ft | 431 kts | 336° |
| 2026-04-27 13:58 | 45.57025 | 4.24995 | 37603 ft | 431 kts | 336° |
| 2026-04-27 13:58 | 45.59834 | 4.23500 | 37790 ft | 431 kts | 336° |
| 2026-04-27 13:59 | 45.62639 | 4.22005 | 37968 ft | 430 kts | 336° |
| 2026-04-27 13:59 | 45.65443 | 4.20506 | 38115 ft | 431 kts | 336° |
| 2026-04-27 13:59 | 45.68259 | 4.18996 | 38136 ft | 432 kts | 336° |
| 2026-04-27 14:00 | 45.73893 | 4.15983 | 38127 ft | 432 kts | 335° |
| 2026-04-27 14:00 | 45.79524 | 4.12978 | 38134 ft | 432 kts | 335° |
| 2026-04-27 14:01 | 45.85149 | 4.09959 | 38131 ft | 432 kts | 335° |
| 2026-04-27 14:01 | 45.90772 | 4.06928 | 38147 ft | 431 kts | 335° |
| 2026-04-27 14:02 | 45.96391 | 4.03893 | 38145 ft | 431 kts | 335° |
| 2026-04-27 14:02 | 46.02003 | 4.00853 | 38141 ft | 431 kts | 335° |
| 2026-04-27 14:03 | 46.07630 | 3.97809 | 38140 ft | 431 kts | 335° |
| 2026-04-27 14:03 | 46.13206 | 3.94785 | 38146 ft | 431 kts | 335° |
| 2026-04-27 14:04 | 46.18824 | 3.91742 | 38141 ft | 432 kts | 335° |
| 2026-04-27 14:04 | 46.24457 | 3.88705 | 38141 ft | 432 kts | 335° |
| 2026-04-27 14:05 | 46.30082 | 3.85662 | 38140 ft | 432 kts | 335° |
| 2026-04-27 14:05 | 46.35703 | 3.82595 | 38150 ft | 432 kts | 335° |
| 2026-04-27 14:06 | 46.41301 | 3.79451 | 38151 ft | 431 kts | 333° |
| 2026-04-27 14:06 | 46.46856 | 3.76187 | 38149 ft | 431 kts | 334° |
| 2026-04-27 14:07 | 46.52465 | 3.73052 | 38148 ft | 432 kts | 335° |
| 2026-04-27 14:07 | 46.58101 | 3.70030 | 38153 ft | 432 kts | 335° |
| 2026-04-27 14:08 | 46.63695 | 3.67005 | 38147 ft | 431 kts | 334° |
| 2026-04-27 14:08 | 46.69421 | 3.64318 | 38137 ft | 437 kts | 345° |
| 2026-04-27 14:09 | 46.75561 | 3.64170 | 38140 ft | 449 kts | 3° |
| 2026-04-27 14:09 | 46.81758 | 3.65478 | 38133 ft | 450 kts | 3° |
| 2026-04-27 14:10 | 46.87961 | 3.66776 | 38141 ft | 450 kts | 3° |
| 2026-04-27 14:10 | 46.94159 | 3.68073 | 38145 ft | 450 kts | 3° |
| 2026-04-27 14:11 | 47.00356 | 3.69375 | 38137 ft | 450 kts | 3° |
| 2026-04-27 14:11 | 47.06564 | 3.70688 | 38138 ft | 450 kts | 3° |
| 2026-04-27 14:12 | 47.12733 | 3.71994 | 38150 ft | 451 kts | 3° |
| 2026-04-27 14:12 | 47.18944 | 3.73323 | 38150 ft | 451 kts | 3° |
| 2026-04-27 14:12 | 47.22012 | 3.73977 | 37978 ft | 451 kts | 3° |
| 2026-04-27 14:13 | 47.25115 | 3.74636 | 37695 ft | 450 kts | 3° |
| 2026-04-27 14:13 | 47.28182 | 3.75286 | 37426 ft | 451 kts | 3° |
| 2026-04-27 14:13 | 47.31283 | 3.75941 | 37070 ft | 450 kts | 3° |
| 2026-04-27 14:13 | 47.34397 | 3.76599 | 36248 ft | 453 kts | 3° |
| 2026-04-27 14:14 | 47.37521 | 3.77260 | 35429 ft | 454 kts | 3° |
| 2026-04-27 14:14 | 47.40655 | 3.77928 | 34590 ft | 456 kts | 3° |
| 2026-04-27 14:14 | 47.43808 | 3.78605 | 33635 ft | 460 kts | 3° |
| 2026-04-27 14:14 | 47.46982 | 3.79289 | 32622 ft | 463 kts | 4° |
| 2026-04-27 14:15 | 47.50189 | 3.79980 | 31594 ft | 466 kts | 4° |
| 2026-04-27 14:15 | 47.53414 | 3.80671 | 30532 ft | 470 kts | 4° |
| 2026-04-27 14:15 | 47.56663 | 3.81365 | 29252 ft | 475 kts | 5° |
| 2026-04-27 14:15 | 47.59942 | 3.82070 | 28063 ft | 476 kts | 5° |
| 2026-04-27 14:16 | 47.63214 | 3.82781 | 27231 ft | 472 kts | 5° |
| 2026-04-27 14:16 | 47.66445 | 3.83488 | 26462 ft | 466 kts | 5° |
| 2026-04-27 14:16 | 47.69640 | 3.84186 | 25669 ft | 462 kts | 5° |
| 2026-04-27 14:16 | 47.72809 | 3.84874 | 24902 ft | 459 kts | 5° |
| 2026-04-27 14:17 | 47.75958 | 3.85555 | 24142 ft | 456 kts | 5° |
| 2026-04-27 14:17 | 47.79053 | 3.86226 | 23346 ft | 454 kts | 5° |
| 2026-04-27 14:17 | 47.82163 | 3.86900 | 22605 ft | 449 kts | 5° |
| 2026-04-27 14:17 | 47.85239 | 3.87566 | 21901 ft | 444 kts | 6° |
| 2026-04-27 14:18 | 47.88241 | 3.88215 | 21241 ft | 439 kts | 6° |
| 2026-04-27 14:18 | 47.91250 | 3.88870 | 20596 ft | 435 kts | 6° |
| 2026-04-27 14:18 | 47.94229 | 3.89520 | 19966 ft | 431 kts | 6° |
| 2026-04-27 14:18 | 47.97177 | 3.90164 | 19370 ft | 426 kts | 6° |
| 2026-04-27 14:19 | 48.00096 | 3.90802 | 18801 ft | 421 kts | 6° |
| 2026-04-27 14:19 | 48.02983 | 3.91436 | 18221 ft | 417 kts | 6° |
| 2026-04-27 14:19 | 48.05843 | 3.92067 | 17657 ft | 412 kts | 6° |
| 2026-04-27 14:19 | 48.08613 | 3.92680 | 17137 ft | 407 kts | 6° |
| 2026-04-27 14:20 | 48.11371 | 3.93286 | 16943 ft | 394 kts | 6° |
| 2026-04-27 14:20 | 48.14037 | 3.93872 | 16811 ft | 379 kts | 6° |
| 2026-04-27 14:20 | 48.16604 | 3.94437 | 16686 ft | 366 kts | 6° |
| 2026-04-27 14:20 | 48.19081 | 3.94983 | 16555 ft | 353 kts | 6° |
| 2026-04-27 14:21 | 48.21472 | 3.95510 | 16429 ft | 342 kts | 6° |
| 2026-04-27 14:21 | 48.23801 | 3.95772 | 16304 ft | 329 kts | 355° |
| 2026-04-27 14:21 | 48.26022 | 3.95246 | 16071 ft | 320 kts | 342° |
| 2026-04-27 14:21 | 48.28030 | 3.94005 | 15772 ft | 314 kts | 329° |
| 2026-04-27 14:22 | 48.29949 | 3.92444 | 15500 ft | 312 kts | 330° |
| 2026-04-27 14:22 | 48.31885 | 3.90892 | 15229 ft | 311 kts | 330° |
| 2026-04-27 14:22 | 48.33769 | 3.89389 | 14972 ft | 310 kts | 330° |
| 2026-04-27 14:22 | 48.35669 | 3.87875 | 14709 ft | 309 kts | 330° |
| 2026-04-27 14:23 | 48.37562 | 3.86361 | 14446 ft | 307 kts | 330° |
| 2026-04-27 14:23 | 48.39447 | 3.84851 | 14180 ft | 306 kts | 330° |
| 2026-04-27 14:23 | 48.41319 | 3.83348 | 13913 ft | 304 kts | 330° |
| 2026-04-27 14:23 | 48.43185 | 3.81844 | 13642 ft | 304 kts | 330° |
| 2026-04-27 14:24 | 48.45043 | 3.80343 | 13381 ft | 303 kts | 331° |
| 2026-04-27 14:24 | 48.46902 | 3.78846 | 13123 ft | 302 kts | 330° |
| 2026-04-27 14:24 | 48.48758 | 3.77356 | 12865 ft | 301 kts | 330° |
| 2026-04-27 14:24 | 48.50603 | 3.75873 | 12609 ft | 299 kts | 330° |
| 2026-04-27 14:25 | 48.52429 | 3.74378 | 12353 ft | 298 kts | 326° |
| 2026-04-27 14:25 | 48.54040 | 3.72449 | 12108 ft | 295 kts | 313° |
| 2026-04-27 14:25 | 48.55285 | 3.70000 | 11860 ft | 293 kts | 301° |
| 2026-04-27 14:25 | 48.56384 | 3.67405 | 11606 ft | 293 kts | 302° |
| 2026-04-27 14:26 | 48.57475 | 3.64856 | 11359 ft | 293 kts | 302° |
| 2026-04-27 14:26 | 48.58585 | 3.62280 | 11113 ft | 291 kts | 302° |
| 2026-04-27 14:26 | 48.59681 | 3.59739 | 10876 ft | 286 kts | 302° |
| 2026-04-27 14:26 | 48.60756 | 3.57238 | 10631 ft | 282 kts | 302° |
| 2026-04-27 14:27 | 48.61655 | 3.54691 | 10380 ft | 267 kts | 286° |
| 2026-04-27 14:27 | 48.61896 | 3.52011 | 10142 ft | 252 kts | 265° |
| 2026-04-27 14:27 | 48.61477 | 3.49516 | 9876 ft | 244 kts | 244° |
| 2026-04-27 14:27 | 48.60498 | 3.47486 | 9726 ft | 235 kts | 222° |
| 2026-04-27 14:28 | 48.59608 | 3.46498 | 9803 ft | 236 kts | 210° |
| 2026-04-27 14:28 | 48.58077 | 3.45690 | 9911 ft | 238 kts | 189° |
| 2026-04-27 14:28 | 48.56400 | 3.45766 | 10083 ft | 241 kts | 168° |
| 2026-04-27 14:28 | 48.54861 | 3.46742 | 10152 ft | 244 kts | 147° |
| 2026-04-27 14:29 | 48.53639 | 3.48522 | 10157 ft | 246 kts | 129° |
| 2026-04-27 14:29 | 48.52621 | 3.50599 | 10157 ft | 246 kts | 126° |
| 2026-04-27 14:29 | 48.51655 | 3.52729 | 10164 ft | 246 kts | 124° |
| 2026-04-27 14:29 | 48.50702 | 3.54879 | 10166 ft | 247 kts | 125° |
| 2026-04-27 14:30 | 48.49747 | 3.57029 | 10162 ft | 246 kts | 125° |
| 2026-04-27 14:30 | 48.48846 | 3.59222 | 10159 ft | 247 kts | 114° |
| 2026-04-27 14:30 | 48.48426 | 3.61711 | 10165 ft | 247 kts | 93° |
| 2026-04-27 14:30 | 48.48631 | 3.64274 | 10168 ft | 248 kts | 71° |
| 2026-04-27 14:31 | 48.49445 | 3.66544 | 10169 ft | 248 kts | 49° |
| 2026-04-27 14:31 | 48.50754 | 3.68199 | 10169 ft | 246 kts | 27° |
| 2026-04-27 14:31 | 48.52367 | 3.69014 | 10163 ft | 244 kts | 5° |
| 2026-04-27 14:31 | 48.54042 | 3.68878 | 10166 ft | 241 kts | 342° |
| 2026-04-27 14:32 | 48.55552 | 3.67840 | 10172 ft | 239 kts | 322° |
| 2026-04-27 14:32 | 48.56723 | 3.66094 | 10165 ft | 236 kts | 306° |
| 2026-04-27 14:32 | 48.57705 | 3.64087 | 10170 ft | 237 kts | 303° |
| 2026-04-27 14:32 | 48.58622 | 3.62066 | 10165 ft | 237 kts | 302° |
| 2026-04-27 14:33 | 48.59541 | 3.59992 | 10158 ft | 238 kts | 302° |
| 2026-04-27 14:33 | 48.60464 | 3.57908 | 10167 ft | 238 kts | 302° |
| 2026-04-27 14:33 | 48.61387 | 3.55833 | 10166 ft | 244 kts | 302° |
| 2026-04-27 14:33 | 48.62365 | 3.53568 | 10168 ft | 271 kts | 302° |
| 2026-04-27 14:34 | 48.63418 | 3.51088 | 10158 ft | 284 kts | 302° |
| 2026-04-27 14:34 | 48.64487 | 3.48557 | 10162 ft | 287 kts | 302° |
| 2026-04-27 14:34 | 48.65565 | 3.46011 | 10163 ft | 287 kts | 302° |
| 2026-04-27 14:34 | 48.66642 | 3.43475 | 10164 ft | 285 kts | 302° |
| 2026-04-27 14:35 | 48.67713 | 3.40959 | 10166 ft | 285 kts | 302° |
| 2026-04-27 14:35 | 48.68789 | 3.38433 | 10169 ft | 286 kts | 302° |
| 2026-04-27 14:35 | 48.69871 | 3.35897 | 10168 ft | 286 kts | 302° |
| 2026-04-27 14:35 | 48.70952 | 3.33363 | 10169 ft | 286 kts | 302° |
| 2026-04-27 14:36 | 48.72029 | 3.30833 | 10170 ft | 286 kts | 302° |
| 2026-04-27 14:36 | 48.73102 | 3.28313 | 10170 ft | 284 kts | 302° |
| 2026-04-27 14:36 | 48.74174 | 3.25790 | 10172 ft | 285 kts | 302° |
| 2026-04-27 14:36 | 48.75243 | 3.23263 | 10169 ft | 285 kts | 302° |
| 2026-04-27 14:37 | 48.76312 | 3.20735 | 10172 ft | 284 kts | 301° |
| 2026-04-27 14:37 | 48.77381 | 3.18212 | 10172 ft | 286 kts | 302° |
| 2026-04-27 14:37 | 48.78457 | 3.15675 | 10176 ft | 287 kts | 302° |
| 2026-04-27 14:37 | 48.79522 | 3.13156 | 10171 ft | 286 kts | 302° |
| 2026-04-27 14:38 | 48.80592 | 3.10610 | 10173 ft | 286 kts | 301° |
| 2026-04-27 14:38 | 48.81662 | 3.08058 | 10174 ft | 287 kts | 302° |
| 2026-04-27 14:38 | 48.82733 | 3.05509 | 10174 ft | 286 kts | 302° |
| 2026-04-27 14:38 | 48.83800 | 3.02975 | 10177 ft | 284 kts | 301° |
| 2026-04-27 14:39 | 48.84967 | 3.00561 | 10173 ft | 284 kts | 310° |
| 2026-04-27 14:39 | 48.86302 | 2.98355 | 10174 ft | 284 kts | 311° |
| 2026-04-27 14:39 | 48.87640 | 2.96142 | 10178 ft | 284 kts | 311° |
| 2026-04-27 14:39 | 48.88976 | 2.93920 | 10179 ft | 284 kts | 311° |
| 2026-04-27 14:40 | 48.90309 | 2.91699 | 10180 ft | 285 kts | 311° |
| 2026-04-27 14:40 | 48.91649 | 2.89464 | 10177 ft | 286 kts | 311° |
| 2026-04-27 14:40 | 48.92783 | 2.87003 | 10109 ft | 282 kts | 296° |
| 2026-04-27 14:40 | 48.93412 | 2.84225 | 9964 ft | 276 kts | 280° |
| 2026-04-27 14:41 | 48.93530 | 2.81275 | 9849 ft | 282 kts | 266° |
| 2026-04-27 14:41 | 48.93367 | 2.78308 | 9682 ft | 281 kts | 265° |
| 2026-04-27 14:41 | 48.93210 | 2.75357 | 9527 ft | 281 kts | 265° |
| 2026-04-27 14:41 | 48.93055 | 2.72391 | 9348 ft | 281 kts | 266° |
| 2026-04-27 14:42 | 48.92900 | 2.69428 | 9178 ft | 281 kts | 265° |
| 2026-04-27 14:42 | 48.92746 | 2.66476 | 9014 ft | 281 kts | 265° |
| 2026-04-27 14:42 | 48.92591 | 2.63513 | 8832 ft | 281 kts | 266° |
| 2026-04-27 14:42 | 48.92435 | 2.60558 | 8665 ft | 279 kts | 266° |
| 2026-04-27 14:43 | 48.92278 | 2.57629 | 8490 ft | 279 kts | 266° |
| 2026-04-27 14:43 | 48.92116 | 2.54686 | 8320 ft | 278 kts | 266° |
| 2026-04-27 14:43 | 48.91958 | 2.51805 | 8149 ft | 278 kts | 266° |
| 2026-04-27 14:43 | 48.91796 | 2.48873 | 7979 ft | 278 kts | 266° |
| 2026-04-27 14:44 | 48.91633 | 2.45955 | 7800 ft | 277 kts | 265° |
| 2026-04-27 14:44 | 48.91471 | 2.43050 | 7647 ft | 270 kts | 266° |
| 2026-04-27 14:44 | 48.91315 | 2.40280 | 7522 ft | 258 kts | 265° |
| 2026-04-27 14:44 | 48.91165 | 2.37624 | 7394 ft | 247 kts | 265° |
| 2026-04-27 14:45 | 48.91020 | 2.35045 | 7184 ft | 243 kts | 266° |
| 2026-04-27 14:45 | 48.90875 | 2.32488 | 7027 ft | 242 kts | 266° |
| 2026-04-27 14:45 | 48.90730 | 2.29949 | 6872 ft | 241 kts | 266° |
| 2026-04-27 14:45 | 48.90585 | 2.27406 | 6728 ft | 242 kts | 265° |
| 2026-04-27 14:46 | 48.90441 | 2.24857 | 6574 ft | 241 kts | 266° |
| 2026-04-27 14:46 | 48.90297 | 2.22310 | 6414 ft | 241 kts | 266° |
| 2026-04-27 14:46 | 48.90153 | 2.19808 | 6291 ft | 241 kts | 265° |
| 2026-04-27 14:46 | 48.90005 | 2.17266 | 6182 ft | 241 kts | 265° |
| 2026-04-27 14:47 | 48.89857 | 2.14725 | 6085 ft | 241 kts | 265° |
| 2026-04-27 14:47 | 48.89728 | 2.12185 | 5983 ft | 240 kts | 272° |
| 2026-04-27 14:47 | 48.90098 | 2.09755 | 5922 ft | 238 kts | 299° |
| 2026-04-27 14:47 | 48.91140 | 2.07853 | 5859 ft | 236 kts | 325° |
| 2026-04-27 14:48 | 48.92632 | 2.06856 | 5798 ft | 235 kts | 351° |
| 2026-04-27 14:48 | 48.95670 | 2.08138 | 5688 ft | 236 kts | 42° |
| 2026-04-27 14:48 | 48.96601 | 2.10167 | 5624 ft | 237 kts | 69° |
| 2026-04-27 14:49 | 48.96887 | 2.12600 | 5418 ft | 236 kts | 86° |
| 2026-04-27 14:49 | 48.96985 | 2.15135 | 5283 ft | 238 kts | 85° |
| 2026-04-27 14:49 | 48.97113 | 2.17635 | 5123 ft | 236 kts | 84° |